Time;durP1;ratioP1;P1;durP2;ratioP2;P2;SDS_P1;SDS_P2;PMS_P1;PMS_P2;Temp;Humidity;BMP_temperature;BMP_pressure;BME280_temperature;BME280_humidity;BME280_pressure;Samples;Min_cycle;Max_cycle;Signal;HPM_P1;HPM_P2
2023/05/09 00:10:27;;;;;;;77.90;16.40;;;16.50;99.90;;;;;;4860350;29;20450;-83
2023/05/09 00:16:05;;;;;;;77.63;17.87;;;16.50;99.90;;;;;;4921516;23;20497;-84
2023/05/09 00:43:51;;;;;;;;;;;;;;;;;;;;;
2023/05/09 00:47:24;;;;;;;78.40;16.37;;;16.50;99.90;;;;;;4933337;29;20448;-84
2023/05/09 01:04:22;;;;;;;80.40;18.37;;;16.40;99.90;;;;;;4861189;29;20472;-84
2023/05/09 01:31:50;;;;;;;84.40;20.23;;;16.20;99.90;;;;;;4900074;29;20412;-84
2023/05/09 02:29:42;;;;;;;;;;;;;;;;;;;;;
2023/05/09 02:32:25;;;;;;;84.07;16.50;;;16.20;99.90;;;;;;4926955;29;20799;-83
2023/05/09 02:39:11;;;;;;;;;;;;;;;;;;;;;
2023/05/09 03:11:21;;;;;;;;;;;;;;;;;;;;;
2023/05/09 03:17:47;;;;;;;;;;;;;;;;;;;;;
2023/05/09 03:23:24;;;;;;;80.80;17.43;;;16.00;99.90;;;;;;5076359;23;20483;-87
2023/05/09 03:25:50;;;;;;;83.50;17.23;;;16.10;99.90;;;;;;4980482;28;20444;-87
2023/05/09 03:28:19;;;;;;;83.07;18.03;;;16.00;99.90;;;;;;4980117;28;20421;-87
2023/05/09 03:30:44;;;;;;;81.50;17.43;;;16.10;99.90;;;;;;4980179;28;20642;-87
2023/05/09 03:33:10;;;;;;;81.60;17.60;;;16.00;99.90;;;;;;4980584;28;20493;-87
2023/05/09 03:35:36;;;;;;;80.67;18.87;;;16.00;99.90;;;;;;4997293;28;20464;-87
2023/05/09 03:38:01;;;;;;;80.90;17.60;;;16.00;99.90;;;;;;4980146;28;20200;-88
2023/05/09 03:40:27;;;;;;;79.40;18.40;;;16.00;99.90;;;;;;4979827;28;20184;-88
2023/05/09 03:42:53;;;;;;;84.37;18.60;;;16.10;99.90;;;;;;4997466;28;20227;-87
2023/05/09 03:45:18;;;;;;;83.80;18.77;;;16.10;99.90;;;;;;4980620;28;20244;-87
2023/05/09 03:47:45;;;;;;;80.97;18.37;;;16.00;99.90;;;;;;4979855;28;20224;-87
2023/05/09 03:50:10;;;;;;;78.10;18.90;;;16.00;99.90;;;;;;4979497;28;20249;-87
2023/05/09 03:52:36;;;;;;;83.27;20.33;;;16.00;99.90;;;;;;4979521;28;20457;-87
2023/05/09 03:55:03;;;;;;;80.20;17.20;;;16.00;99.90;;;;;;4978958;28;20225;-87
2023/05/09 03:57:28;;;;;;;84.07;20.17;;;16.00;99.90;;;;;;4979373;28;20201;-87
2023/05/09 03:59:54;;;;;;;81.50;19.07;;;16.00;99.90;;;;;;4979413;28;20498;-87
2023/05/09 04:02:20;;;;;;;84.50;23.13;;;16.00;99.90;;;;;;4979030;28;20181;-87
2023/05/09 04:04:46;;;;;;;85.40;20.70;;;16.00;99.90;;;;;;4978752;28;20576;-87
2023/05/09 04:07:12;;;;;;;84.93;22.83;;;16.00;99.90;;;;;;4979769;28;20441;-87
2023/05/09 04:09:37;;;;;;;85.63;22.97;;;16.00;99.90;;;;;;4995808;28;20169;-87
2023/05/09 04:12:03;;;;;;;86.97;24.43;;;16.00;99.90;;;;;;4996408;28;20396;-87
2023/05/09 04:14:29;;;;;;;86.77;25.63;;;15.90;99.90;;;;;;4978480;28;20177;-87
2023/05/09 04:16:54;;;;;;;91.03;26.47;;;15.90;99.90;;;;;;4978886;28;20247;-87
2023/05/09 04:19:20;;;;;;;90.40;29.27;;;15.90;99.90;;;;;;4995719;28;20176;-87
2023/05/09 04:21:46;;;;;;;86.00;28.90;;;15.90;99.90;;;;;;4995905;28;20227;-88
2023/05/09 04:24:11;;;;;;;92.00;29.73;;;15.90;99.90;;;;;;4978762;28;20192;-87
2023/05/09 04:26:37;;;;;;;85.87;25.17;;;15.90;99.90;;;;;;4978397;28;20185;-87
2023/05/09 04:29:03;;;;;;;88.33;28.17;;;15.90;99.90;;;;;;4979015;28;20171;-87
2023/05/09 04:31:30;;;;;;;91.17;32.47;;;15.90;99.90;;;;;;4995409;28;20399;-87
2023/05/09 04:33:57;;;;;;;89.97;28.10;;;15.90;99.90;;;;;;4995515;28;20169;-87
2023/05/09 04:36:23;;;;;;;89.80;31.03;;;15.80;99.90;;;;;;4978311;28;20884;-87
2023/05/09 04:38:48;;;;;;;86.23;31.10;;;15.80;99.90;;;;;;4978021;28;20459;-87
2023/05/09 04:41:15;;;;;;;94.87;31.93;;;15.80;99.90;;;;;;4995957;28;20477;-87
2023/05/09 04:43:41;;;;;;;94.03;37.77;;;15.80;99.90;;;;;;4996232;28;20604;-87
2023/05/09 04:46:07;;;;;;;91.77;38.17;;;15.80;99.90;;;;;;4978679;28;20855;-87
2023/05/09 04:48:34;;;;;;;98.83;38.60;;;15.80;99.90;;;;;;4978162;28;20410;-87
2023/05/09 04:51:00;;;;;;;91.13;33.93;;;15.80;99.90;;;;;;4995722;28;20394;-87
2023/05/09 04:53:27;;;;;;;91.57;33.23;;;15.90;99.90;;;;;;4995335;28;20458;-87
2023/05/09 04:55:53;;;;;;;91.13;32.60;;;15.90;99.90;;;;;;4996028;28;20548;-87
2023/05/09 04:58:19;;;;;;;92.67;35.00;;;15.90;99.90;;;;;;4978469;28;20409;-87
2023/05/09 05:00:45;;;;;;;91.30;32.63;;;16.00;99.90;;;;;;4978512;28;20412;-87
2023/05/09 05:03:11;;;;;;;94.43;30.80;;;16.00;99.90;;;;;;4978813;28;20925;-87
2023/05/09 05:05:37;;;;;;;97.90;37.63;;;16.00;99.90;;;;;;4995751;28;20596;-87
2023/05/09 05:08:03;;;;;;;96.00;38.63;;;16.00;99.90;;;;;;4995981;28;20437;-87
2023/05/09 05:10:29;;;;;;;93.37;34.97;;;16.10;99.90;;;;;;4979313;28;20171;-87
2023/05/09 05:12:55;;;;;;;93.83;32.20;;;16.10;99.90;;;;;;4995465;28;20917;-88
2023/05/09 05:15:20;;;;;;;96.53;33.47;;;16.10;99.90;;;;;;4995951;28;20492;-87
2023/05/09 05:17:46;;;;;;;95.37;35.77;;;16.10;99.90;;;;;;4995396;28;20288;-87
2023/05/09 05:20:15;;;;;;;100.03;38.30;;;16.20;99.90;;;;;;4996146;28;20177;-87
2023/05/09 05:22:40;;;;;;;94.23;36.77;;;16.10;99.90;;;;;;4978157;28;20185;-87
2023/05/09 05:25:07;;;;;;;97.63;39.27;;;16.20;99.90;;;;;;4995286;28;20564;-87
2023/05/09 05:27:32;;;;;;;93.70;40.30;;;16.30;99.90;;;;;;4996283;28;20234;-87
2023/05/09 05:30:00;;;;;;;93.27;35.80;;;16.30;99.90;;;;;;4995253;28;20795;-87
2023/05/09 05:32:26;;;;;;;92.97;38.10;;;16.40;99.90;;;;;;4996074;28;20247;-87
2023/05/09 05:34:54;;;;;;;90.33;32.20;;;16.40;99.90;;;;;;4995883;28;20459;-87
2023/05/09 05:37:20;;;;;;;94.57;32.73;;;16.40;99.90;;;;;;4980077;28;20201;-87
2023/05/09 05:39:45;;;;;;;92.53;33.23;;;16.40;99.90;;;;;;4979089;28;20447;-87
2023/05/09 05:42:11;;;;;;;91.57;35.87;;;16.40;99.90;;;;;;4995106;28;20202;-87
2023/05/09 05:44:40;;;;;;;93.17;31.00;;;16.40;99.90;;;;;;4998537;28;20200;-87
2023/05/09 05:47:05;;;;;;;91.77;35.43;;;16.40;99.90;;;;;;4999375;28;20731;-88
2023/05/09 05:49:31;;;;;;;93.50;36.27;;;16.40;99.90;;;;;;4999389;28;20423;-87
2023/05/09 05:51:57;;;;;;;96.70;40.73;;;16.40;99.90;;;;;;4982676;28;20171;-87
2023/05/09 05:54:22;;;;;;;95.00;44.13;;;16.50;99.90;;;;;;4980374;28;20596;-87
2023/05/09 05:56:50;;;;;;;95.63;40.57;;;16.60;99.90;;;;;;4999364;28;20188;-88
2023/05/09 05:59:16;;;;;;;97.27;43.03;;;16.60;99.90;;;;;;4980893;28;20175;-87
2023/05/09 06:01:42;;;;;;;91.73;38.63;;;16.70;99.90;;;;;;5000459;28;20770;-87
2023/05/09 06:04:07;;;;;;;92.67;31.77;;;16.80;99.90;;;;;;4998636;28;20184;-87
2023/05/09 06:06:33;;;;;;;91.40;32.00;;;16.90;99.90;;;;;;4998225;28;20183;-87
2023/05/09 06:08:59;;;;;;;87.03;27.20;;;17.00;99.90;;;;;;4997727;28;20170;-87
2023/05/09 06:11:25;;;;;;;96.73;26.37;;;17.10;99.90;;;;;;4999036;28;20238;-87
2023/05/09 06:13:50;;;;;;;90.20;23.63;;;17.20;99.90;;;;;;4980601;28;20414;-87
2023/05/09 06:16:16;;;;;;;84.30;20.10;;;17.20;99.90;;;;;;4998170;28;20187;-87
2023/05/09 06:18:42;;;;;;;85.37;18.00;;;17.30;99.90;;;;;;4980496;28;20175;-87
2023/05/09 06:21:08;;;;;;;86.50;18.57;;;17.40;99.90;;;;;;4979808;28;20573;-87
2023/05/09 06:23:35;;;;;;;85.03;18.73;;;17.50;99.90;;;;;;4980257;28;20228;-88
2023/05/09 06:26:02;;;;;;;84.13;18.27;;;17.50;99.90;;;;;;4980293;28;20187;-87
2023/05/09 06:28:31;;;;;;;84.83;17.77;;;17.70;99.90;;;;;;4964462;28;20510;-88
2023/05/09 06:30:57;;;;;;;87.43;19.53;;;17.70;99.90;;;;;;4979623;28;20488;-87
2023/05/09 06:33:23;;;;;;;89.93;20.00;;;17.80;99.90;;;;;;4998711;28;20858;-87
2023/05/09 06:35:48;;;;;;;81.33;16.90;;;17.80;99.90;;;;;;4980311;28;20198;-88
2023/05/09 06:38:14;;;;;;;84.37;17.50;;;17.80;99.90;;;;;;4982600;28;20170;-88
2023/05/09 06:40:40;;;;;;;84.53;17.30;;;17.90;99.90;;;;;;4997977;28;20163;-87
2023/05/09 06:43:06;;;;;;;82.93;17.80;;;18.00;99.90;;;;;;4979958;28;20542;-87
2023/05/09 06:45:35;;;;;;;84.60;20.00;;;18.10;99.90;;;;;;4996789;28;20442;-87
2023/05/09 06:48:00;;;;;;;79.07;16.47;;;18.20;99.90;;;;;;4979813;28;20410;-87
2023/05/09 06:50:26;;;;;;;81.93;18.00;;;18.30;99.90;;;;;;4997390;28;20831;-87
2023/05/09 06:52:52;;;;;;;80.10;16.20;;;18.30;99.90;;;;;;4996870;28;20169;-87
2023/05/09 06:55:18;;;;;;;80.53;16.07;;;18.30;99.90;;;;;;4997609;28;20171;-87
2023/05/09 06:57:43;;;;;;;78.43;15.90;;;18.30;99.90;;;;;;4979943;28;20177;-87
2023/05/09 07:00:10;;;;;;;80.13;16.07;;;18.30;99.90;;;;;;4997003;28;20182;-87
2023/05/09 07:02:40;;;;;;;77.70;15.00;;;18.40;99.90;;;;;;4996861;28;20170;-87
2023/05/09 07:05:08;;;;;;;80.17;18.17;;;18.60;99.90;;;;;;4980084;28;20458;-87
2023/05/09 07:07:33;;;;;;;77.77;19.10;;;18.70;99.90;;;;;;4997496;28;20421;-87
2023/05/09 07:10:00;;;;;;;74.67;18.50;;;18.80;99.90;;;;;;4998211;28;20401;-87
2023/05/09 07:12:25;;;;;;;75.00;17.67;;;18.80;99.90;;;;;;4979795;28;20171;-87
2023/05/09 07:14:51;;;;;;;74.37;15.57;;;19.00;99.90;;;;;;4979668;28;20501;-87
2023/05/09 07:17:17;;;;;;;74.80;14.97;;;19.10;99.90;;;;;;4996628;28;20182;-87
2023/05/09 07:19:43;;;;;;;70.43;7.47;;;19.10;99.90;;;;;;4997242;28;20177;-86
2023/05/09 07:22:09;;;;;;;70.83;8.40;;;19.00;99.90;;;;;;4996770;28;20183;-87
2023/05/09 07:24:34;;;;;;;70.30;8.30;;;19.10;99.90;;;;;;4996280;28;21099;-88
2023/05/09 07:27:03;;;;;;;72.87;8.50;;;19.20;99.90;;;;;;4997010;28;20183;-87
2023/05/09 07:29:29;;;;;;;70.10;7.60;;;19.30;99.90;;;;;;4979741;28;20166;-87
2023/05/09 07:31:54;;;;;;;70.63;8.93;;;19.20;99.90;;;;;;4979847;28;20988;-87
2023/05/09 07:34:22;;;;;;;74.30;9.20;;;19.30;99.90;;;;;;4996996;28;20163;-87
2023/05/09 07:36:50;;;;;;;70.70;8.40;;;19.40;99.90;;;;;;4979403;28;20221;-87
2023/05/09 07:39:16;;;;;;;69.70;6.63;;;19.50;99.90;;;;;;4980067;28;20477;-87
2023/05/09 07:41:42;;;;;;;67.70;6.20;;;19.50;99.90;;;;;;4996468;28;20401;-87
2023/05/09 07:44:08;;;;;;;72.17;6.20;;;19.50;99.90;;;;;;4996850;28;20546;-87
2023/05/09 07:46:39;;;;;;;70.53;5.17;;;19.60;99.90;;;;;;4979086;28;20194;-87
2023/05/09 07:49:05;;;;;;;68.00;6.30;;;19.70;99.90;;;;;;4980417;28;20404;-87
2023/05/09 07:51:33;;;;;;;68.00;6.03;;;19.70;99.90;;;;;;4996471;28;20402;-87
2023/05/09 07:53:59;;;;;;;67.43;5.83;;;19.70;99.90;;;;;;4979366;28;20262;-87
2023/05/09 07:56:25;;;;;;;68.07;7.50;;;19.70;96.10;;;;;;4996081;28;20453;-87
2023/05/09 07:58:51;;;;;;;67.27;8.10;;;19.80;99.80;;;;;;4996998;28;20170;-88
2023/05/09 08:01:16;;;;;;;68.50;11.63;;;19.90;94.80;;;;;;4996655;28;20416;-87
2023/05/09 08:03:42;;;;;;;68.33;10.37;;;19.60;89.80;;;;;;4996611;28;20163;-87
2023/05/09 08:06:08;;;;;;;67.67;8.00;;;19.70;94.70;;;;;;4978135;28;20734;-87
2023/05/09 08:08:36;;;;;;;69.20;11.80;;;19.60;92.60;;;;;;4995881;28;20166;-87
2023/05/09 08:11:04;;;;;;;69.90;13.60;;;19.60;92.30;;;;;;4996237;28;20177;-88
2023/05/09 08:13:51;;;;;;;69.30;10.20;;;19.60;87.40;;;;;;4995909;28;20402;-89
2023/05/09 08:16:20;;;;;;;73.30;14.47;;;19.50;92.90;;;;;;4979374;28;20433;-87
2023/05/09 08:18:45;;;;;;;72.07;17.00;;;19.50;90.50;;;;;;4996804;28;20497;-87
2023/05/09 08:21:11;;;;;;;70.40;16.40;;;19.60;80.40;;;;;;4978730;28;20497;-87
2023/05/09 08:23:37;;;;;;;68.10;13.07;;;19.60;86.20;;;;;;4996552;28;20167;-87
2023/05/09 08:26:03;;;;;;;69.47;16.67;;;19.70;81.50;;;;;;4978397;28;20190;-88
2023/05/09 08:28:28;;;;;;;69.80;16.30;;;19.70;70.80;;;;;;4995902;28;20166;-87
2023/05/09 08:30:55;;;;;;;70.53;11.40;;;19.70;70.10;;;;;;4978216;28;20177;-87
2023/05/09 08:33:24;;;;;;;67.00;9.40;;;19.80;66.50;;;;;;4995830;28;20175;-87
2023/05/09 08:35:53;;;;;;;68.60;12.27;;;19.90;67.00;;;;;;4996131;28;20436;-87
2023/05/09 08:38:19;;;;;;;68.47;13.60;;;19.90;62.20;;;;;;4980789;28;20554;-87
2023/05/09 08:40:45;;;;;;;67.90;10.90;;;19.90;62.90;;;;;;4996319;28;20442;-87
2023/05/09 08:43:12;;;;;;;69.17;10.67;;;20.00;56.30;;;;;;4996393;28;20437;-88
2023/05/09 08:45:51;;;;;;;70.80;10.70;;;20.00;51.00;;;;;;4979888;28;20928;-87
2023/05/09 08:48:20;;;;;;;68.43;11.83;;;20.00;45.20;;;;;;4995839;28;20453;-87
2023/05/09 08:51:11;;;;;;;69.17;12.03;;;20.00;59.00;;;;;;4979456;28;20417;-87
2023/05/09 08:53:37;;;;;;;68.07;9.30;;;20.20;48.70;;;;;;4996179;28;20485;-87
2023/05/09 08:56:03;;;;;;;68.60;5.20;;;20.30;52.40;;;;;;4978390;28;20845;-87
2023/05/09 08:58:30;;;;;;;68.07;4.37;;;20.30;27.10;;;;;;4995846;28;20414;-87
2023/05/09 09:00:57;;;;;;;65.60;4.20;;;20.30;32.70;;;;;;4995560;28;20399;-87
2023/05/09 09:03:34;;;;;;;67.80;5.97;;;20.30;26.50;;;;;;4996111;28;20902;-87
2023/05/09 09:06:11;;;;;;;66.60;5.10;;;20.40;35.00;;;;;;4996027;28;20425;-87
2023/05/09 09:08:49;;;;;;;;;;;;;;;;;;;;;
2023/05/09 09:15:05;;;;;;;66.17;4.67;;;20.60;28.90;;;;;;4995956;28;20865;-87
2023/05/09 09:17:28;;;;;;;67.00;5.00;;;20.50;23.20;;;;;;5002082;23;20508;-87
2023/05/09 09:20:06;;;;;;;68.30;3.83;;;20.40;15.80;;;;;;4982883;28;20924;-87
2023/05/09 09:22:33;;;;;;;66.70;3.53;;;20.20;22.00;;;;;;5051137;23;20501;-80
2023/05/09 09:25:00;;;;;;;65.27;3.67;;;20.40;28.30;;;;;;5000981;28;20442;-80
2023/05/09 09:27:28;;;;;;;65.00;3.83;;;20.50;23.80;;;;;;5000903;28;20418;-80
2023/05/09 09:30:05;;;;;;;66.47;3.67;;;20.70;24.60;;;;;;4982694;28;20477;-80
2023/05/09 09:32:34;;;;;;;66.60;3.70;;;21.00;13.10;;;;;;4983732;28;20901;-80
2023/05/09 09:35:07;;;;;;;67.90;3.77;;;21.20;22.60;;;;;;5001177;28;20464;-81
2023/05/09 09:37:34;;;;;;;67.40;4.80;;;21.30;12.40;;;;;;4982611;28;20434;-80
2023/05/09 09:40:00;;;;;;;66.07;4.00;;;21.50;12.90;;;;;;5000346;28;20400;-80
2023/05/09 09:42:28;;;;;;;73.33;4.47;;;21.50;10.00;;;;;;5000394;28;20411;-80
2023/05/09 09:45:15;;;;;;;66.50;4.10;;;21.70;9.60;;;;;;4982688;28;20486;-80
2023/05/09 09:47:45;;;;;;;67.87;4.00;;;21.50;2.10;;;;;;4983005;28;21070;-80
2023/05/09 09:50:13;;;;;;;67.00;4.50;;;21.50;12.10;;;;;;5001006;28;20409;-80
2023/05/09 09:52:52;;;;;;;67.30;5.43;;;21.70;8.90;;;;;;5000662;28;20452;-80
2023/05/09 09:55:19;;;;;;;67.77;6.50;;;21.80;6.80;;;;;;5000598;28;20479;-79
2023/05/09 09:57:47;;;;;;;67.03;5.73;;;22.10;6.60;;;;;;4983762;28;20413;-80
2023/05/09 10:00:23;;;;;;;69.43;8.00;;;22.30;4.00;;;;;;5000265;28;20405;-80
2023/05/09 10:02:54;;;;;;;69.37;8.83;;;22.30;1.00;;;;;;5000991;28;20869;-80
2023/05/09 10:08:03;;;;;;;67.77;9.00;;;22.10;1.00;;;;;;5056375;23;20914;-80
2023/05/09 10:10:33;;;;;;;68.10;8.30;;;21.80;1.00;;;;;;4980829;28;20410;-80
2023/05/09 10:13:02;;;;;;;70.20;9.83;;;22.00;1.00;;;;;;4981688;28;20489;-80
2023/05/09 10:15:30;;;;;;;68.03;9.00;;;22.00;1.00;;;;;;4980867;28;20407;-80
2023/05/09 10:18:00;;;;;;;67.67;8.10;;;22.00;1.00;;;;;;4963760;28;20413;-80
2023/05/09 10:20:27;;;;;;;67.43;7.30;;;22.20;1.00;;;;;;4963799;28;20415;-80
2023/05/09 10:23:05;;;;;;;71.30;7.80;;;22.40;1.00;;;;;;4963459;28;20418;-80
2023/05/09 10:25:42;;;;;;;71.70;6.80;;;22.40;1.00;;;;;;4962972;28;20454;-80
2023/05/09 10:28:11;;;;;;;70.50;7.17;;;22.50;1.00;;;;;;4980276;28;20414;-80
2023/05/09 10:30:46;;;;;;;69.23;6.57;;;22.30;1.00;;;;;;4980818;28;20403;-80
2023/05/09 10:33:15;;;;;;;67.73;6.63;;;22.10;1.00;;;;;;4981103;28;20404;-80
2023/05/09 10:35:45;;;;;;;68.07;7.07;;;21.90;1.00;;;;;;4980258;28;20430;-80
2023/05/09 10:38:12;;;;;;;71.50;7.80;;;22.20;1.00;;;;;;4980660;28;20411;-80
2023/05/09 10:40:40;;;;;;;67.57;7.37;;;22.00;1.00;;;;;;4963349;28;20497;-80
2023/05/09 10:43:07;;;;;;;69.13;7.57;;;22.20;1.00;;;;;;4979968;28;20415;-80
2023/05/09 10:45:36;;;;;;;67.43;5.93;;;22.20;1.00;;;;;;4962697;28;20541;-80
2023/05/09 10:48:03;;;;;;;68.90;8.30;;;22.10;1.00;;;;;;4980256;28;20445;-80
2023/05/09 10:50:30;;;;;;;74.50;8.00;;;22.10;1.00;;;;;;4980506;28;20964;-80
2023/05/09 10:53:16;;;;;;;68.93;8.03;;;22.00;1.00;;;;;;4979742;28;20403;-80
2023/05/09 10:55:57;;;;;;;67.30;6.10;;;22.20;1.00;;;;;;4979861;28;20866;-80
2023/05/09 10:58:28;;;;;;;67.47;6.60;;;22.40;1.00;;;;;;4962835;28;20470;-80
2023/05/09 11:00:58;;;;;;;66.53;5.50;;;22.70;1.00;;;;;;4962225;28;20414;-80
2023/05/09 11:03:25;;;;;;;72.13;6.63;;;22.50;1.00;;;;;;4962479;28;20415;-80
2023/05/09 11:05:55;;;;;;;67.07;4.80;;;22.90;1.00;;;;;;4980157;28;20992;-80
2023/05/09 11:08:43;;;;;;;68.50;4.40;;;23.20;1.00;;;;;;4980288;28;20394;-81
2023/05/09 11:11:24;;;;;;;68.20;4.83;;;23.50;1.00;;;;;;4979888;28;20418;-81
2023/05/09 11:13:56;;;;;;;68.70;4.50;;;23.50;1.00;;;;;;4979656;28;20473;-80
2023/05/09 11:16:25;;;;;;;65.80;3.80;;;23.50;1.00;;;;;;4962229;28;20443;-80
2023/05/09 11:18:59;;;;;;;67.70;6.00;;;23.70;1.00;;;;;;4979813;28;20414;-80
2023/05/09 11:21:25;;;;;;;66.60;4.80;;;23.70;1.00;;;;;;4979215;28;20387;-80
2023/05/09 11:23:51;;;;;;;66.87;4.90;;;23.50;1.00;;;;;;4979477;28;20509;-80
2023/05/09 11:26:21;;;;;;;67.30;4.83;;;23.30;1.00;;;;;;4979314;28;20426;-80
2023/05/09 11:28:52;;;;;;;66.40;4.77;;;23.30;1.00;;;;;;4979144;28;20249;-80
2023/05/09 11:31:18;;;;;;;66.37;4.33;;;23.20;1.00;;;;;;4979256;28;20396;-80
2023/05/09 11:33:53;;;;;;;68.13;5.83;;;23.50;1.00;;;;;;4979075;28;20569;-80
2023/05/09 11:36:35;;;;;;;66.60;5.07;;;23.50;1.00;;;;;;4979285;28;20433;-80
2023/05/09 11:39:07;;;;;;;67.80;5.40;;;23.60;1.00;;;;;;4979426;28;20964;-80
2023/05/09 11:41:45;;;;;;;66.90;5.50;;;23.80;1.00;;;;;;4960640;28;20972;-80
2023/05/09 11:44:16;;;;;;;68.17;5.90;;;23.80;1.00;;;;;;4979139;28;20390;-80
2023/05/09 11:46:42;;;;;;;70.70;7.40;;;23.60;1.00;;;;;;4961920;28;20442;-80
2023/05/09 11:49:32;;;;;;;67.80;6.60;;;23.50;1.00;;;;;;4978847;28;20403;-80
2023/05/09 11:52:00;;;;;;;67.63;5.07;;;23.50;1.00;;;;;;4961360;28;20454;-80
2023/05/09 11:54:26;;;;;;;68.53;6.53;;;23.60;1.00;;;;;;4979104;28;20438;-80
2023/05/09 11:56:52;;;;;;;67.87;5.97;;;23.50;1.00;;;;;;4961465;28;20493;-81
2023/05/09 11:59:19;;;;;;;68.17;7.63;;;23.80;1.00;;;;;;4979241;28;20806;-80
2023/05/09 12:01:44;;;;;;;68.27;7.60;;;24.00;1.00;;;;;;4979249;28;20160;-81
2023/05/09 12:04:16;;;;;;;69.60;5.93;;;23.60;1.00;;;;;;4978855;28;20403;-80
2023/05/09 12:06:47;;;;;;;69.57;6.20;;;23.80;1.00;;;;;;4961108;28;20729;-80
2023/05/09 12:09:13;;;;;;;67.63;5.90;;;23.90;1.00;;;;;;4978536;28;20403;-80
2023/05/09 12:11:47;;;;;;;67.87;5.97;;;24.20;1.00;;;;;;4961122;28;20992;-80
2023/05/09 12:14:29;;;;;;;67.07;3.90;;;24.60;1.00;;;;;;4978833;28;20525;-80
2023/05/09 12:16:54;;;;;;;68.03;3.60;;;24.40;1.00;;;;;;4977955;28;20433;-80
2023/05/09 12:19:25;;;;;;;67.07;4.23;;;24.30;1.00;;;;;;4960816;28;20415;-80
2023/05/09 12:22:08;;;;;;;67.37;3.40;;;24.30;1.00;;;;;;4960884;28;20695;-80
2023/05/09 12:24:48;;;;;;;67.17;3.33;;;24.30;1.00;;;;;;4960739;28;20470;-81
2023/05/09 12:27:13;;;;;;;67.57;3.17;;;24.20;1.00;;;;;;4960839;28;20438;-80
2023/05/09 12:29:43;;;;;;;66.40;3.03;;;24.00;1.00;;;;;;4960587;28;20996;-80
2023/05/09 12:32:21;;;;;;;66.67;3.47;;;24.20;1.00;;;;;;4978148;28;20174;-80
2023/05/09 12:34:47;;;;;;;69.17;3.30;;;24.00;1.00;;;;;;4977568;28;20438;-80
2023/05/09 12:37:29;;;;;;;67.37;4.03;;;24.00;1.00;;;;;;4977556;28;20428;-81
2023/05/09 12:40:14;;;;;;;;;;;;;;;;;;;;;
2023/05/09 12:42:46;;;;;;;66.80;3.17;;;23.80;1.00;;;;;;4977418;28;20487;-80
2023/05/09 12:45:22;;;;;;;69.70;3.47;;;24.00;1.00;;;;;;4977887;28;20387;-80
2023/05/09 12:47:55;;;;;;;67.80;3.20;;;24.20;1.00;;;;;;4978322;28;20438;-81
2023/05/09 12:50:33;;;;;;;66.60;3.00;;;24.10;1.00;;;;;;4978024;28;20511;-80
2023/05/09 12:53:01;;;;;;;66.30;2.83;;;24.10;1.00;;;;;;4960745;28;20419;-80
2023/05/09 12:55:27;;;;;;;66.37;3.33;;;24.00;1.00;;;;;;4978851;28;20521;-80
2023/05/09 12:58:01;;;;;;;66.53;3.47;;;23.80;1.00;;;;;;4978447;28;20454;-81
2023/05/09 13:00:49;;;;;;;69.73;3.47;;;23.70;1.00;;;;;;4978302;28;20177;-80
2023/05/09 13:03:23;;;;;;;67.17;3.20;;;23.60;1.00;;;;;;4979039;28;20414;-80
2023/05/09 13:06:15;;;;;;;65.77;3.13;;;23.50;1.00;;;;;;4979047;28;20550;-80
2023/05/09 13:08:43;;;;;;;68.00;3.70;;;23.30;1.00;;;;;;4922050;29;20459;-80
2023/05/09 13:11:16;;;;;;;66.67;3.43;;;23.50;1.00;;;;;;4960613;28;20783;-80
2023/05/09 13:13:41;;;;;;;67.10;3.37;;;23.40;1.00;;;;;;4960575;28;21034;-81
2023/05/09 13:16:07;;;;;;;66.33;2.93;;;23.50;1.00;;;;;;4979059;28;20427;-80
2023/05/09 13:18:35;;;;;;;65.97;3.30;;;23.20;1.00;;;;;;4978564;28;20238;-80
2023/05/09 13:21:10;;;;;;;66.57;3.47;;;23.30;1.00;;;;;;4978126;28;20214;-81
2023/05/09 13:23:36;;;;;;;67.90;3.57;;;23.50;1.00;;;;;;4978210;28;20399;-80
2023/05/09 13:26:08;;;;;;;66.27;3.10;;;23.40;1.00;;;;;;4977991;28;20933;-80
2023/05/09 13:28:33;;;;;;;68.27;4.87;;;23.60;1.00;;;;;;4960372;28;20156;-80
2023/05/09 13:31:05;;;;;;;66.57;3.37;;;23.60;1.00;;;;;;4960553;28;20402;-80
2023/05/09 13:33:31;;;;;;;68.80;3.63;;;23.60;1.00;;;;;;4977170;28;20203;-81
2023/05/09 13:35:57;;;;;;;66.60;3.50;;;23.70;1.00;;;;;;4961008;28;20494;-81
2023/05/09 13:38:30;;;;;;;66.07;3.43;;;23.60;1.00;;;;;;4977361;28;20156;-80
2023/05/09 13:40:57;;;;;;;66.30;3.47;;;23.40;1.00;;;;;;4959786;28;20171;-80
2023/05/09 13:43:34;;;;;;;70.10;3.77;;;23.20;1.00;;;;;;4959897;28;20431;-80
2023/05/09 13:45:59;;;;;;;68.00;3.47;;;23.10;1.00;;;;;;4977873;28;20454;-81
2023/05/09 13:48:38;;;;;;;66.80;3.37;;;23.00;1.00;;;;;;4960114;28;20414;-80
2023/05/09 13:51:06;;;;;;;67.70;3.10;;;23.20;1.00;;;;;;4960475;28;20453;-80
2023/05/09 13:53:32;;;;;;;67.77;3.27;;;23.10;1.00;;;;;;4977279;28;20465;-80
2023/05/09 13:55:57;;;;;;;67.03;4.10;;;23.10;1.00;;;;;;4977419;28;20457;-80
2023/05/09 13:58:23;;;;;;;70.10;4.00;;;23.20;1.00;;;;;;4977189;28;20169;-80
2023/05/09 14:00:49;;;;;;;68.80;3.90;;;23.20;1.00;;;;;;4976769;28;20166;-80
2023/05/09 14:03:15;;;;;;;68.27;4.53;;;23.20;1.00;;;;;;4977220;28;20567;-80
2023/05/09 14:05:41;;;;;;;68.50;4.40;;;23.30;1.00;;;;;;4962627;28;20222;-80
2023/05/09 14:08:07;;;;;;;68.57;4.33;;;23.40;1.00;;;;;;4980234;28;20469;-80
2023/05/09 14:10:33;;;;;;;66.90;3.80;;;23.10;1.00;;;;;;4980322;28;20407;-80
2023/05/09 14:12:58;;;;;;;68.40;6.50;;;23.00;1.00;;;;;;4980328;28;20174;-81
2023/05/09 14:15:24;;;;;;;65.87;4.60;;;22.90;1.00;;;;;;4979832;28;20219;-80
2023/05/09 14:17:50;;;;;;;66.37;3.30;;;22.60;1.00;;;;;;4979914;28;20218;-80
2023/05/09 14:20:16;;;;;;;64.37;2.70;;;22.20;3.60;;;;;;4980053;28;20537;-80
2023/05/09 14:22:41;;;;;;;64.97;2.80;;;21.90;23.10;;;;;;4962482;28;20172;-80
2023/05/09 14:25:07;;;;;;;67.07;5.67;;;21.60;39.40;;;;;;4979223;28;20166;-80
2023/05/09 14:27:35;;;;;;;67.47;8.37;;;21.20;54.40;;;;;;4979828;28;20192;-80
2023/05/09 14:30:02;;;;;;;67.87;9.97;;;21.00;62.50;;;;;;4979790;28;20409;-80
2023/05/09 14:32:28;;;;;;;67.10;7.47;;;20.80;74.00;;;;;;4979493;28;20493;-80
2023/05/09 14:34:53;;;;;;;65.90;4.40;;;20.60;86.90;;;;;;4979556;28;20491;-80
2023/05/09 14:37:19;;;;;;;69.40;5.20;;;20.50;93.00;;;;;;4979387;28;20204;-80
2023/05/09 14:39:45;;;;;;;68.30;5.37;;;20.40;97.50;;;;;;4979830;28;20171;-80
2023/05/09 14:42:12;;;;;;;69.40;7.50;;;20.40;99.90;;;;;;4979567;28;20533;-79
2023/05/09 14:44:41;;;;;;;69.40;10.37;;;20.40;99.90;;;;;;4962391;28;20475;-79
2023/05/09 14:47:08;;;;;;;74.63;16.50;;;20.30;99.90;;;;;;4979020;28;20502;-79
2023/05/09 14:49:34;;;;;;;71.60;17.90;;;20.20;99.90;;;;;;4962342;28;20417;-79
2023/05/09 14:51:59;;;;;;;75.60;17.13;;;20.10;99.90;;;;;;4980344;28;20403;-79
2023/05/09 14:54:25;;;;;;;70.90;13.67;;;20.00;99.90;;;;;;4979743;28;20449;-79
2023/05/09 14:56:51;;;;;;;72.83;15.10;;;20.00;99.90;;;;;;4979744;28;20215;-80
2023/05/09 14:59:17;;;;;;;71.90;12.87;;;19.90;99.90;;;;;;4961815;28;20465;-79
2023/05/09 15:01:44;;;;;;;70.77;11.73;;;20.00;99.90;;;;;;4979571;28;20164;-79
2023/05/09 15:04:10;;;;;;;70.70;11.87;;;20.00;99.90;;;;;;4962876;28;20569;-79
2023/05/09 15:06:36;;;;;;;71.57;12.00;;;19.90;99.90;;;;;;4978936;28;20528;-79
2023/05/09 15:09:02;;;;;;;73.97;13.17;;;19.90;99.90;;;;;;4979323;28;20446;-79
2023/05/09 15:11:31;;;;;;;72.63;13.53;;;19.90;99.90;;;;;;4961299;28;20409;-79
2023/05/09 15:13:56;;;;;;;74.93;13.37;;;20.00;99.90;;;;;;4979458;28;20179;-80
2023/05/09 15:16:22;;;;;;;74.47;14.77;;;20.10;99.90;;;;;;4978839;28;20423;-80
2023/05/09 15:18:51;;;;;;;71.73;14.60;;;20.10;99.90;;;;;;4979830;28;20160;-80
2023/05/09 15:21:17;;;;;;;71.83;13.43;;;20.00;99.90;;;;;;4961675;28;20416;-79
2023/05/09 15:26:18;;;;;;;70.37;12.90;;;20.10;99.90;;;;;;2995284;23;20726;-87
2023/05/09 15:29:17;;;;;;;72.50;13.97;;;20.00;99.90;;;;;;4995354;28;20453;-88
2023/05/09 15:31:43;;;;;;;69.87;11.97;;;20.00;99.90;;;;;;4978280;28;20238;-88
2023/05/09 15:34:18;;;;;;;70.90;17.13;;;20.00;99.90;;;;;;4977909;28;20454;-88
2023/05/09 15:40:09;;;;;;;;;;;;;;;;;;;;;
2023/05/09 15:42:57;;;;;;;70.67;13.67;;;19.90;99.90;;;;;;4962014;28;20420;-88
2023/05/09 15:46:37;;;;;;;;;;;;;;;;;;;;;
2023/05/09 15:49:39;;;;;;;;;;;;;;;;;;;;;
2023/05/09 15:52:39;;;;;;;;;;;;;;;;;;;;;
2023/05/09 16:03:23;;;;;;;;;;;;;;;;;;;;;
2023/05/09 16:07:11;;;;;;;;;;;;;;;;;;;;;
2023/05/09 18:35:26;;;;;;;72.60;11.30;;;17.70;99.90;;;;;;4937484;29;20558;-88
2023/05/09 18:38:42;;;;;;;71.80;10.23;;;17.60;99.90;;;;;;4977918;28;20392;-88
2023/05/09 18:41:47;;;;;;;;;;;;;;;;;;;;;
2023/05/09 18:44:39;;;;;;;69.30;9.27;;;17.50;99.90;;;;;;4977754;28;20421;-88
2023/05/09 18:47:29;;;;;;;;;;;;;;;;;;;;;